createdAt,value
2022-10-02T00:00:08.440Z,4.00
2022-10-02T00:03:38.551Z,4.30
2022-10-02T00:06:24.252Z,4.40
2022-10-02T00:09:02.955Z,3.90
2022-10-02T00:11:54.527Z,3.10
2022-10-02T00:14:24.521Z,3.20
2022-10-02T00:16:56.519Z,3.00
2022-10-02T00:19:25.014Z,3.90
2022-10-02T00:22:15.648Z,3.80
2022-10-02T00:24:51.789Z,3.80
2022-10-02T00:27:57.137Z,4.30
2022-10-02T00:30:24.461Z,4.20
2022-10-02T00:33:21.287Z,3.70
2022-10-02T00:36:16.212Z,3.30
2022-10-02T00:39:51.327Z,3.50
2022-10-02T00:42:40.299Z,4.70
2022-10-02T00:45:44.455Z,4.50
2022-10-02T00:48:20.694Z,4.10
2022-10-02T00:51:31.731Z,3.90
2022-10-02T00:54:52.824Z,4.70
2022-10-02T00:57:57.898Z,4.00
2022-10-02T01:00:25.911Z,4.20
2022-10-02T01:03:23.491Z,3.50
2022-10-02T01:05:50.869Z,4.00
2022-10-02T01:08:19.046Z,3.90
2022-10-02T01:10:47.134Z,3.40
2022-10-02T01:13:14.385Z,3.80
2022-10-02T01:15:52.659Z,4.30
2022-10-02T01:18:20.177Z,4.30
2022-10-02T01:20:52.206Z,4.70
2022-10-02T01:23:58.916Z,4.20
2022-10-02T01:26:26.108Z,4.00
2022-10-02T01:28:53.489Z,3.10
2022-10-02T01:31:21.592Z,3.20
2022-10-02T01:33:49.419Z,3.60
2022-10-02T01:36:17.502Z,3.50
2022-10-02T01:38:46.997Z,4.30
2022-10-02T01:41:14.125Z,4.40
2022-10-02T01:43:55.256Z,5.10
2022-10-02T01:46:55.840Z,4.40
2022-10-02T01:50:12.001Z,4.50
2022-10-02T01:53:23.638Z,4.20
2022-10-02T01:56:00.748Z,4.00
2022-10-02T01:59:11.160Z,3.90
2022-10-02T02:01:51.843Z,3.90
2022-10-02T02:04:29.531Z,4.00
2022-10-02T02:07:25.564Z,4.00
2022-10-02T02:10:10.202Z,4.00
2022-10-02T02:12:51.270Z,3.60
2022-10-02T02:15:56.614Z,4.10
2022-10-02T02:18:57.439Z,5.10
2022-10-02T02:21:37.421Z,5.60
2022-10-02T02:24:11.721Z,5.00
2022-10-02T02:26:43.126Z,5.00
2022-10-02T02:29:12.416Z,4.60
2022-10-02T02:31:55.826Z,4.00
2022-10-02T02:34:42.375Z,3.80
2022-10-02T02:37:18.512Z,3.60
2022-10-02T02:39:52.272Z,4.10
2022-10-02T02:42:26.033Z,4.60
2022-10-02T02:45:05.937Z,5.30
2022-10-02T02:47:46.908Z,4.80
2022-10-02T02:50:34.813Z,5.10
2022-10-02T02:53:31.606Z,5.00
2022-10-02T02:56:02.708Z,4.00
2022-10-02T02:58:40.626Z,4.50
2022-10-02T03:01:08.101Z,4.10
2022-10-02T03:03:35.459Z,4.00
2022-10-02T03:06:21.297Z,4.80
2022-10-02T03:08:52.129Z,4.40
2022-10-02T03:11:56.663Z,4.20
2022-10-02T03:14:51.967Z,4.00
2022-10-02T03:17:38.240Z,4.00
2022-10-02T03:20:36.071Z,3.70
2022-10-02T03:23:11.068Z,3.90
2022-10-02T03:25:53.580Z,4.40
2022-10-02T03:28:55.158Z,4.80
2022-10-02T03:31:28.198Z,4.50
2022-10-02T03:33:58.724Z,4.30
2022-10-02T03:36:26.561Z,3.30
2022-10-02T03:39:20.244Z,3.10
2022-10-02T03:41:46.159Z,2.70
2022-10-02T03:44:13.262Z,3.50
2022-10-02T03:46:40.670Z,3.60
2022-10-02T03:49:08.190Z,3.60
2022-10-02T03:51:35.376Z,3.30
2022-10-02T03:54:03.298Z,2.50
2022-10-02T03:56:49.093Z,2.20
2022-10-02T03:59:50.461Z,2.80
2022-10-02T04:02:46.851Z,3.00
2022-10-02T04:05:35.596Z,2.30
2022-10-02T04:08:19.086Z,2.60
2022-10-02T04:11:14.102Z,2.40
2022-10-02T04:13:53.034Z,3.90
2022-10-02T04:16:48.090Z,3.60
2022-10-02T04:19:45.893Z,3.30
2022-10-02T04:22:34.116Z,4.20
2022-10-02T04:25:20.808Z,3.40
2022-10-02T04:28:07.675Z,3.50
2022-10-02T04:30:35.172Z,3.70
2022-10-02T04:33:17.839Z,4.00
2022-10-02T04:35:54.271Z,3.90
2022-10-02T04:38:39.139Z,4.10
2022-10-02T04:41:46.403Z,3.20
2022-10-02T04:44:47.819Z,2.90
2022-10-02T04:48:06.017Z,2.80
2022-10-02T04:50:59.906Z,2.60
2022-10-02T04:54:08.850Z,2.40
2022-10-02T04:56:55.515Z,2.10
2022-10-02T04:59:55.609Z,1.70
2022-10-02T05:03:00.662Z,2.20
2022-10-02T05:05:44.660Z,1.70
2022-10-02T05:08:30.011Z,1.70
2022-10-02T05:11:32.029Z,1.70
2022-10-02T05:14:22.461Z,1.60
2022-10-02T05:17:19.018Z,1.70
2022-10-02T05:20:03.265Z,1.50
2022-10-02T05:23:18.408Z,1.70
2022-10-02T05:26:05.470Z,1.90
2022-10-02T05:29:21.460Z,2.30
2022-10-02T05:36:18.046Z,2.30
2022-10-02T05:39:02.627Z,2.30
2022-10-02T05:42:06.135Z,2.40
2022-10-02T05:44:44.623Z,1.90
2022-10-02T05:47:27.360Z,2.40
2022-10-02T05:50:14.365Z,2.60
2022-10-02T05:53:26.892Z,3.20
2022-10-02T05:56:06.000Z,3.70
2022-10-02T05:58:44.657Z,3.80
2022-10-02T06:01:30.635Z,3.80
2022-10-02T06:04:36.017Z,4.30
2022-10-02T06:07:18.745Z,3.90
2022-10-02T06:10:37.788Z,4.90
2022-10-02T06:13:18.097Z,4.00
2022-10-02T06:16:22.490Z,4.30
2022-10-02T06:19:00.554Z,4.40
2022-10-02T06:21:38.061Z,4.40
2022-10-02T06:24:16.338Z,4.40
2022-10-02T06:27:32.983Z,4.50
2022-10-02T06:30:12.245Z,4.70
2022-10-02T06:32:48.287Z,4.70
2022-10-02T06:35:22.364Z,4.50
2022-10-02T06:38:02.071Z,3.70
2022-10-02T06:40:47.673Z,4.70
2022-10-02T06:44:07.881Z,4.40
2022-10-02T06:46:53.179Z,3.10
2022-10-02T06:49:57.392Z,3.40
2022-10-02T06:53:12.343Z,3.10
2022-10-02T06:56:05.957Z,3.30
2022-10-02T06:58:57.366Z,3.30
2022-10-02T07:02:38.436Z,2.60
2022-10-02T07:05:23.894Z,2.80
2022-10-02T07:08:27.130Z,2.70
2022-10-02T07:11:18.855Z,1.90
2022-10-02T07:14:10.675Z,1.70
2022-10-02T07:17:05.381Z,2.00
2022-10-02T07:20:15.711Z,1.60
2022-10-02T07:23:16.331Z,1.60
2022-10-02T07:26:02.371Z,1.50
2022-10-02T07:29:10.348Z,1.60
2022-10-02T07:32:17.861Z,1.60
2022-10-02T07:35:00.585Z,1.40
2022-10-02T07:38:07.801Z,1.50
2022-10-02T07:41:29.852Z,1.70
2022-10-02T07:44:36.465Z,1.60
2022-10-02T07:47:33.910Z,1.30
2022-10-02T07:50:32.541Z,1.40
2022-10-02T07:53:43.179Z,1.20
2022-10-02T07:56:19.487Z,1.40
2022-10-02T07:59:03.640Z,1.50
2022-10-02T08:01:36.753Z,1.40
2022-10-02T08:04:14.151Z,1.50
2022-10-02T08:06:44.583Z,1.30
2022-10-02T08:09:32.553Z,1.10
2022-10-02T08:12:25.969Z,1.30
2022-10-02T08:14:55.395Z,1.00
2022-10-02T08:17:49.494Z,0.90
2022-10-02T08:20:44.031Z,1.00
2022-10-02T08:23:37.233Z,1.00
2022-10-02T08:26:11.328Z,1.00
2022-10-02T08:29:05.683Z,1.00
2022-10-02T08:31:33.366Z,0.80
2022-10-02T08:34:17.780Z,0.80
2022-10-02T08:36:54.272Z,0.80
2022-10-02T08:39:55.625Z,0.90
2022-10-02T08:43:10.735Z,0.90
2022-10-02T08:46:41.752Z,1.00
2022-10-02T08:49:47.305Z,0.80
2022-10-02T08:52:29.626Z,1.00
2022-10-02T08:55:23.034Z,1.00
2022-10-02T08:58:02.997Z,0.80
2022-10-02T09:01:06.715Z,1.10
2022-10-02T09:04:13.896Z,1.10
2022-10-02T09:07:31.896Z,1.30
2022-10-02T09:10:31.931Z,1.00
2022-10-02T09:13:32.973Z,0.80
2022-10-02T09:16:11.289Z,1.00
2022-10-02T09:19:24.406Z,1.30
2022-10-02T09:21:59.046Z,1.00
2022-10-02T09:25:22.180Z,1.20
2022-10-02T09:28:21.147Z,1.30
2022-10-02T09:31:06.691Z,1.50
2022-10-02T09:33:58.042Z,1.10
2022-10-02T09:37:39.975Z,1.20
2022-10-02T09:40:13.303Z,1.20
2022-10-02T09:43:00.988Z,1.20
2022-10-02T09:46:37.434Z,1.70
2022-10-02T09:49:31.626Z,3.70
2022-10-02T09:52:29.849Z,2.10
2022-10-02T09:55:00.046Z,1.50
2022-10-02T09:57:44.390Z,1.10
2022-10-02T10:00:56.554Z,1.30
2022-10-02T10:03:48.041Z,1.50
2022-10-02T10:06:40.216Z,1.60
2022-10-02T10:09:51.329Z,1.50
2022-10-02T10:12:42.808Z,1.40
2022-10-02T10:15:53.495Z,1.70
2022-10-02T10:19:04.107Z,1.00
2022-10-02T10:21:49.194Z,1.70
2022-10-02T10:25:35.724Z,1.30
2022-10-02T10:28:45.068Z,1.20
2022-10-02T10:31:37.176Z,1.20
2022-10-02T10:35:15.707Z,1.50
2022-10-02T10:38:32.608Z,1.00
2022-10-02T10:41:48.167Z,1.10
2022-10-02T10:44:31.297Z,1.40
2022-10-02T10:47:26.217Z,1.50
2022-10-02T10:50:35.444Z,1.50
2022-10-02T10:53:30.429Z,1.60
2022-10-02T10:56:44.380Z,1.60
2022-10-02T10:59:58.587Z,1.60
2022-10-02T11:03:08.878Z,2.50
2022-10-02T11:06:13.137Z,1.20
2022-10-02T11:08:59.293Z,1.30
2022-10-02T11:12:09.888Z,1.10
2022-10-02T11:15:09.632Z,1.00
2022-10-02T11:18:12.363Z,1.00
2022-10-02T11:21:13.303Z,1.30
2022-10-02T11:23:58.623Z,1.40
2022-10-02T11:26:52.863Z,1.10
2022-10-02T11:29:52.573Z,1.00
2022-10-02T11:33:14.236Z,1.30
2022-10-02T11:35:53.363Z,1.10
2022-10-02T11:38:48.287Z,1.10
2022-10-02T11:41:25.064Z,1.20
2022-10-02T11:44:12.527Z,1.60
2022-10-02T11:46:51.735Z,1.20
2022-10-02T11:50:01.567Z,1.20
2022-10-02T11:53:05.395Z,1.30
2022-10-02T11:56:13.806Z,1.40
2022-10-02T11:58:55.945Z,1.20
2022-10-02T12:01:54.470Z,1.30
2022-10-02T12:04:22.676Z,1.30
2022-10-02T12:07:00.322Z,1.40
2022-10-02T12:09:55.223Z,1.70
2022-10-02T12:12:57.962Z,1.30
2022-10-02T12:15:50.063Z,1.50
2022-10-02T12:18:53.125Z,1.60
2022-10-02T12:21:43.897Z,1.80
2022-10-02T12:25:01.864Z,2.00
2022-10-02T12:28:04.434Z,1.50
2022-10-02T12:31:50.576Z,1.20
2022-10-02T12:35:00.343Z,1.30
2022-10-02T12:37:29.933Z,1.20
2022-10-02T12:40:46.463Z,1.20
2022-10-02T12:43:58.302Z,1.20
2022-10-02T12:47:20.858Z,1.70
2022-10-02T12:50:11.964Z,1.90
2022-10-02T12:53:15.276Z,0.90
2022-10-02T12:55:55.164Z,0.80
2022-10-02T12:58:59.331Z,0.70
2022-10-02T13:01:53.555Z,0.70
2022-10-02T13:05:11.184Z,0.60
2022-10-02T13:08:04.909Z,0.80
2022-10-02T13:11:13.644Z,0.50
2022-10-02T13:14:27.774Z,0.40
2022-10-02T13:17:31.570Z,0.50
2022-10-02T13:20:37.399Z,0.50
2022-10-02T13:23:33.905Z,0.60
2022-10-02T13:26:33.871Z,0.40
2022-10-02T13:29:18.745Z,0.50
2022-10-02T13:32:07.583Z,0.50
2022-10-02T13:34:50.854Z,0.40
2022-10-02T13:37:44.905Z,0.50
2022-10-02T13:40:44.019Z,0.40
2022-10-02T13:43:49.565Z,0.70
2022-10-02T13:49:23.134Z,0.60
2022-10-02T13:52:33.530Z,0.60
2022-10-02T13:55:20.165Z,1.00
2022-10-02T13:58:52.668Z,0.80
2022-10-02T14:02:06.888Z,1.00
2022-10-02T14:04:51.355Z,1.20
2022-10-02T14:08:05.642Z,1.00
2022-10-02T14:11:36.999Z,1.10
2022-10-02T14:14:30.415Z,1.30
2022-10-02T14:17:13.125Z,1.10
2022-10-02T14:20:39.559Z,1.00
2022-10-02T14:23:43.167Z,1.20
2022-10-02T14:26:23.179Z,1.20
2022-10-02T14:29:35.234Z,1.30
2022-10-02T14:32:42.846Z,1.30
2022-10-02T14:35:46.850Z,0.90
2022-10-02T14:38:36.684Z,1.00
2022-10-02T14:42:01.073Z,1.10
2022-10-02T14:45:19.697Z,1.30
2022-10-02T14:48:30.501Z,0.90
2022-10-02T14:51:52.508Z,1.20
2022-10-02T14:54:58.605Z,1.10
2022-10-02T14:58:02.750Z,1.20
2022-10-02T15:01:18.850Z,1.00
2022-10-02T15:04:24.567Z,1.30
2022-10-02T15:10:27.087Z,1.10
2022-10-02T15:13:19.113Z,1.30
2022-10-02T15:16:38.302Z,1.40
2022-10-02T15:19:33.455Z,3.00
2022-10-02T15:22:28.260Z,1.80
2022-10-02T15:25:06.671Z,2.10
2022-10-02T15:28:36.811Z,2.50
2022-10-02T15:31:11.548Z,1.90
2022-10-02T15:34:04.762Z,1.60
2022-10-02T15:36:54.184Z,2.40
2022-10-02T15:39:43.870Z,2.50
2022-10-02T15:42:23.747Z,3.00
2022-10-02T15:45:16.507Z,1.80
2022-10-02T15:48:05.106Z,1.60
2022-10-02T15:51:06.990Z,1.50
2022-10-02T15:54:03.775Z,1.70
2022-10-02T15:56:49.090Z,1.40
2022-10-02T15:59:50.677Z,1.20
2022-10-02T16:02:32.161Z,1.40
2022-10-02T16:05:42.324Z,1.50
2022-10-02T16:08:42.081Z,2.40
2022-10-02T16:11:42.304Z,1.90
2022-10-02T16:14:56.097Z,2.00
2022-10-02T16:17:51.952Z,1.50
2022-10-02T16:20:49.438Z,1.80
2022-10-02T16:30:11.971Z,1.60
2022-10-02T16:33:21.535Z,1.80
2022-10-02T16:36:05.168Z,1.50
2022-10-02T16:39:22.017Z,1.20
2022-10-02T16:42:25.470Z,1.30
2022-10-02T16:45:28.559Z,1.30
2022-10-02T16:48:19.979Z,1.30
2022-10-02T16:51:22.537Z,1.40
2022-10-02T16:54:12.445Z,1.50
2022-10-02T16:56:56.412Z,1.80
2022-10-02T16:59:40.195Z,1.70
2022-10-02T17:02:34.186Z,1.60
2022-10-02T17:05:36.581Z,1.30
2022-10-02T17:08:49.674Z,1.50
2022-10-02T17:11:34.663Z,1.90
2022-10-02T17:14:31.120Z,2.10
2022-10-02T17:17:10.659Z,1.50
2022-10-02T17:19:55.985Z,1.60
2022-10-02T17:22:45.041Z,1.50
2022-10-02T17:25:30.362Z,1.80
2022-10-02T17:28:22.044Z,2.00
2022-10-02T17:31:28.224Z,1.80
2022-10-02T17:34:21.288Z,1.60
2022-10-02T17:40:01.473Z,1.30
2022-10-02T17:43:04.007Z,1.40
2022-10-02T17:46:03.264Z,1.40
2022-10-02T17:49:03.811Z,1.60
2022-10-02T17:52:02.801Z,1.60
2022-10-02T17:55:31.810Z,1.40
2022-10-02T17:58:18.999Z,1.30
2022-10-02T18:01:40.317Z,1.50
2022-10-02T18:04:36.579Z,1.60
2022-10-02T18:07:56.528Z,1.80
2022-10-02T18:11:10.154Z,1.70
2022-10-02T18:14:13.601Z,1.40
2022-10-02T18:17:15.488Z,1.60
2022-10-02T18:20:10.387Z,1.60
2022-10-02T18:23:09.494Z,1.20
2022-10-02T18:26:15.538Z,1.60
2022-10-02T18:29:04.428Z,1.60
2022-10-02T18:32:13.268Z,1.50
2022-10-02T18:35:10.130Z,1.20
2022-10-02T18:38:29.442Z,1.30
2022-10-02T18:41:35.934Z,1.40
2022-10-02T18:44:53.787Z,1.40
2022-10-02T18:47:49.466Z,1.40
2022-10-02T18:50:51.965Z,1.20
2022-10-02T18:56:24.673Z,1.00
2022-10-02T19:00:03.369Z,1.20
2022-10-02T19:02:54.826Z,1.20
2022-10-02T19:05:41.311Z,1.20
2022-10-02T19:08:57.990Z,1.30
2022-10-02T19:11:32.512Z,1.00
2022-10-02T19:14:13.133Z,1.20
2022-10-02T19:17:12.854Z,1.00
2022-10-02T19:19:44.605Z,1.30
2022-10-02T19:22:22.416Z,1.50
2022-10-02T19:25:06.756Z,1.50
2022-10-02T19:27:37.023Z,1.30
2022-10-02T19:32:50.831Z,1.20
2022-10-02T19:35:34.417Z,1.20
2022-10-02T19:38:36.274Z,1.30
2022-10-02T19:41:12.830Z,1.20
2022-10-02T19:44:06.693Z,1.40
2022-10-02T19:46:39.190Z,1.30
2022-10-02T19:49:38.059Z,1.40
2022-10-02T19:52:29.834Z,1.50
2022-10-02T19:55:02.855Z,1.60
2022-10-02T19:57:37.783Z,1.40
2022-10-02T20:00:14.956Z,1.30
2022-10-02T20:02:48.396Z,1.30
2022-10-02T20:05:31.455Z,1.50
2022-10-02T20:08:07.044Z,1.70
2022-10-02T20:10:50.708Z,1.50
2022-10-02T20:13:44.316Z,1.50
2022-10-02T20:16:41.239Z,1.50
2022-10-02T20:19:23.805Z,1.30
2022-10-02T20:21:57.609Z,1.20
2022-10-02T20:24:35.152Z,1.50
2022-10-02T20:27:34.314Z,1.70
2022-10-02T20:30:21.482Z,1.40
2022-10-02T20:33:36.648Z,1.30
2022-10-02T20:36:35.748Z,1.50
2022-10-02T20:39:15.835Z,1.60
2022-10-02T20:42:20.751Z,1.70
2022-10-02T20:44:48.461Z,1.50
2022-10-02T20:47:43.515Z,1.40
2022-10-02T20:50:32.725Z,1.60
2022-10-02T20:53:23.562Z,1.70
2022-10-02T20:55:59.323Z,1.80
2022-10-02T20:59:15.495Z,1.80
2022-10-02T21:02:10.248Z,1.80
2022-10-02T21:05:03.247Z,1.70
2022-10-02T21:10:38.895Z,2.00
2022-10-02T21:13:38.944Z,2.00
2022-10-02T21:17:08.402Z,2.20
2022-10-02T21:20:22.742Z,1.80
2022-10-02T21:23:02.007Z,2.10
2022-10-02T21:25:49.601Z,2.00
2022-10-02T21:29:17.945Z,2.30
2022-10-02T21:32:12.259Z,1.70
2022-10-02T21:35:31.420Z,1.70
2022-10-02T21:38:31.860Z,1.60
2022-10-02T21:41:36.120Z,1.90
2022-10-02T21:44:35.947Z,1.80
2022-10-02T21:47:27.985Z,2.10
2022-10-02T21:50:11.227Z,1.80
2022-10-02T21:53:31.192Z,2.10
2022-10-02T21:56:42.618Z,1.70
2022-10-02T21:59:57.492Z,2.00
2022-10-02T22:03:03.873Z,2.00
2022-10-02T22:05:33.837Z,1.80
2022-10-02T22:08:20.738Z,1.50
2022-10-02T22:11:11.779Z,1.70
2022-10-02T22:13:43.245Z,1.80
2022-10-02T22:16:41.213Z,1.80
2022-10-02T22:19:19.667Z,1.70
2022-10-02T22:22:39.814Z,1.80
2022-10-02T22:25:27.614Z,1.80
2022-10-02T22:28:52.514Z,1.90
2022-10-02T22:31:41.462Z,2.00
2022-10-02T22:34:27.066Z,1.70
2022-10-02T22:37:06.217Z,1.60
2022-10-02T22:39:45.708Z,1.80
2022-10-02T22:42:18.720Z,1.70
2022-10-02T22:44:50.837Z,1.80
2022-10-02T22:47:18.017Z,1.60
2022-10-02T22:53:49.677Z,1.90
2022-10-02T22:56:36.670Z,1.80
2022-10-02T22:59:17.082Z,2.00
2022-10-02T23:02:20.229Z,1.90
2022-10-02T23:05:09.765Z,1.80
2022-10-02T23:07:52.538Z,1.90
2022-10-02T23:10:36.627Z,2.50
2022-10-02T23:13:32.482Z,1.70
2022-10-02T23:16:49.416Z,1.80
2022-10-02T23:20:02.694Z,1.80
2022-10-02T23:22:53.443Z,2.00
2022-10-02T23:25:21.632Z,1.60
2022-10-02T23:28:07.914Z,1.60
2022-10-02T23:31:33.030Z,1.90
2022-10-02T23:34:41.940Z,1.60
2022-10-02T23:37:25.151Z,1.70
2022-10-02T23:43:08.626Z,1.60
2022-10-02T23:49:13.582Z,1.50
2022-10-02T23:52:11.065Z,1.70
2022-10-02T23:55:14.119Z,1.40
